Stations météo

réclame
Mon MeteoGroup
Sule Skerry, Grande-Bretagne (3010): Température de l'air & dewpoint: 16.10.2018 15:00:00 - 22.10.2018 15:00:00 (BST)Sule Skerry, Grande-Bretagne (3010): Vitesse du vent & gusts: 16.10.2018 15:00:00 - 22.10.2018 15:00:00 (BST)Sule Skerry, Grande-Bretagne (3010): Direction du vent: 16.10.2018 15:00:00 - 22.10.2018 15:00:00 (BST)Sule Skerry, Grande-Bretagne (3010): reduced air pressure: 16.10.2018 15:00:00 - 22.10.2018 15:00:00 (BST)
Date & Time tt [°C] td [°C] ff [km/h] ff [knt] fx [km/h] fx [knt] dd ppp [hPa]
22.10.2018 15:00:00 11,1 7,9 78 42 100 54 WSW 1018,5
22.10.2018 14:00:00 11,2 7,6 76 41 96 52 WSW 1019,5
22.10.2018 13:00:00 11,0 8,6 68 37 93 50 WSW 1020,5
22.10.2018 12:00:00 11,0 8,1 63 34 85 46 WSW 1021,9
22.10.2018 11:00:00 10,5 8,0 61 33 83 45 W 1023,1
22.10.2018 10:00:00 10,4 7,7 57 31 76 41 WSW 1023,3
22.10.2018 09:00:00 10,7 7,2 57 31 76 41 W 1024,1
22.10.2018 08:00:00 10,0 7,0 44 24 65 35 W 1024,7
22.10.2018 07:00:00 9,3 5,0 50 27 74 40 W 1025,1
22.10.2018 06:00:00 9,2 4,9 48 26 91 49 W 1025,1
22.10.2018 05:00:00 9,4 4,8 55 30 83 45 WNW 1024,5
22.10.2018 04:00:00 9,1 3,0 55 30 80 43 WNW 1023,7
22.10.2018 03:00:00 8,3 3,5 54 29 83 45 W 1023,5
22.10.2018 02:00:00 8,4 3,5 57 31 81 44 WNW 1023,1
22.10.2018 01:00:00 9,4 2,9 57 31 78 42 WNW 1022,1
22.10.2018 00:00:00 8,8 3,1 63 34 83 45 W 1021,7
21.10.2018 23:00:00 8,8 3,7 57 31 80 43 W 1021,1
21.10.2018 22:00:00 7,3 1,7 61 33 83 45 WNW 1021,1
21.10.2018 21:00:00 9,2 2,8 59 32 93 50 W 1020,3
21.10.2018 20:00:00 9,2 4,2 55 30 76 41 W 1020,1
21.10.2018 19:00:00 9,1 3,0 59 32 87 47 W 1019,3
21.10.2018 18:00:00 8,9 4,5 52 28 89 48 W 1018,1
21.10.2018 17:00:00 8,7 4,7 52 28 91 49 W 1017,5
21.10.2018 16:00:00 10,1 5,5 46 25 74 40 W 1017,5
21.10.2018 15:00:00 10,4 3,9 50 27 65 35 W 1017,1
21.10.2018 14:00:00 10,1 3,7 46 25 63 34 W 1017,1
21.10.2018 13:00:00 9,8 4,0 46 25 59 32 WNW 1016,7
21.10.2018 12:00:00 9,8 7,3 37 20 57 31 WNW 1016,1
21.10.2018 11:00:00 10,0 7,8 37 20 67 36 W 1015,3
21.10.2018 10:00:00 11,0 8,7 42 23 59 32 WSW 1014,9
21.10.2018 09:00:00 10,6 8,5 37 20 59 32 SW 1015,3
21.10.2018 08:00:00 10,7 8,4 39 21 52 28 SW 1015,3
21.10.2018 07:00:00 10,3 7,9 35 19 48 26 SW 1015,1
21.10.2018 06:00:00 10,5 8,0 37 20 54 29 WSW 1015,1
21.10.2018 05:00:00 11,3 9,1 37 20 50 27 WSW 1015,7
21.10.2018 04:00:00 11,4 9,0 35 19 54 29 WSW 1015,5
21.10.2018 03:00:00 11,5 9,9 39 21 52 28 WSW 1015,7
21.10.2018 02:00:00 11,2 10,2 31 17 52 28 WSW 1015,3
21.10.2018 01:00:00 11,1 10,1 35 19 48 26 WSW 1015,9
21.10.2018 00:00:00 10,9 10,0 41 22 52 28 W 1016,3
20.10.2018 23:00:00 11,9 11,2 37 20 50 27 W 1016,1
20.10.2018 22:00:00 12,4 11,7 29 16 46 25 WSW 1016,1
20.10.2018 21:00:00 12,5 11,7 31 17 52 28 SW 1016,5
20.10.2018 20:00:00 12,5 11,7 34 18 46 25 SW 1016,1
20.10.2018 19:00:00 12,6 11,8 34 18 52 28 SW 1015,5
20.10.2018 18:00:00 12,7 11,8 35 19 52 28 SW 1015,5
20.10.2018 17:00:00 12,5 11,5 42 23 61 33 SW 1015,3
20.10.2018 16:00:00 12,9 11,8 42 23 67 36 SW 1015,1
20.10.2018 15:00:00 12,8 11,6 48 26 72 39 SW 1015,3
20.10.2018 14:00:00 12,8 11,6 48 26 65 35 SW 1014,5
20.10.2018 13:00:00 12,7 11,4 42 23 59 32 SW 1015,3
20.10.2018 12:00:00 12,8 11,4 41 22 59 32 SW 1015,5
20.10.2018 11:00:00 12,8 11,5 42 23 59 32 SW 1015,7
20.10.2018 10:00:00 12,6 11,3 35 19 52 28 SW 1016,1
20.10.2018 09:00:00 12,7 11,2 37 20 46 25 SSW 1016,5
20.10.2018 08:00:00 10,9 7,5 34 18 - - S 1016,5
20.10.2018 07:00:00 10,6 6,9 35 19 - - SSE 1016,5
20.10.2018 06:00:00 10,5 6,8 35 19 - - SSE 1017,9
20.10.2018 05:00:00 11,1 6,8 31 17 46 25 S 1018,5
20.10.2018 04:00:00 10,8 6,8 35 19 46 25 SSW 1019,5
20.10.2018 03:00:00 10,7 7,0 31 17 46 25 SSW 1020,1
20.10.2018 02:00:00 10,7 7,2 34 18 - - SSW 1020,3
20.10.2018 01:00:00 10,9 6,6 28 15 - - SW 1020,5
20.10.2018 00:00:00 10,9 7,0 28 15 - - SW 1020,9
19.10.2018 23:00:00 11,0 7,0 26 14 - - WSW 1021,1
19.10.2018 22:00:00 10,9 6,5 29 16 - - WSW 1020,5
19.10.2018 21:00:00 10,5 7,0 22 12 - - W 1020,1
19.10.2018 20:00:00 10,3 6,7 29 16 - - W 1019,5
19.10.2018 19:00:00 10,6 5,9 31 17 - - W 1019,7
19.10.2018 18:00:00 10,7 6,0 35 19 50 27 W 1018,9
19.10.2018 17:00:00 10,8 6,3 35 19 48 26 W 1018,1
19.10.2018 16:00:00 10,8 6,3 37 20 52 28 W 1017,5
19.10.2018 15:00:00 10,5 7,1 37 20 59 32 W 1016,9
19.10.2018 14:00:00 10,8 7,4 37 20 52 28 W 1015,9
19.10.2018 13:00:00 10,6 8,3 28 15 52 28 W 1014,7
19.10.2018 12:00:00 11,5 8,4 31 17 - - W 1013,9
19.10.2018 11:00:00 11,2 9,1 28 15 - - W 1013,3
19.10.2018 10:00:00 10,5 8,2 41 22 67 36 SW 1012,7
19.10.2018 09:00:00 11,1 8,4 46 25 65 35 SSW 1012,3
19.10.2018 08:00:00 10,5 7,5 46 25 59 32 S 1012,5
19.10.2018 07:00:00 10,5 6,2 37 20 46 25 SSE 1013,1
19.10.2018 06:00:00 10,2 5,6 31 17 52 28 S 1013,9
19.10.2018 05:00:00 11,1 6,2 35 19 52 28 SSW 1014,9
19.10.2018 04:00:00 10,8 6,0 31 17 - - S 1015,9
19.10.2018 03:00:00 10,5 5,6 34 18 - - S 1016,9
19.10.2018 02:00:00 10,5 6,4 35 19 - - S 1017,5
19.10.2018 01:00:00 10,8 6,7 35 19 - - S 1018,5
19.10.2018 00:00:00 11,1 6,8 28 15 52 28 S 1019,3
18.10.2018 23:00:00 11,0 6,9 31 17 48 26 S 1020,1
18.10.2018 22:00:00 10,7 7,2 37 20 52 28 SSW 1020,9
18.10.2018 21:00:00 10,8 7,1 35 19 50 27 SSW 1021,5
18.10.2018 20:00:00 11,0 6,5 35 19 48 26 S 1021,9
18.10.2018 19:00:00 10,8 7,0 35 19 - - SSW 1022,3
18.10.2018 18:00:00 10,6 7,1 31 17 46 25 SW 1022,7
18.10.2018 17:00:00 10,6 7,5 26 14 - - SSW 1022,7
18.10.2018 16:00:00 11,1 7,0 31 17 - - SW 1023,1
18.10.2018 15:00:00 11,0 6,7 29 16 - - SW 1023,3
18.10.2018 14:00:00 11,0 5,8 28 15 - - SW 1023,7
18.10.2018 13:00:00 10,9 5,9 28 15 - - SW 1024,1
18.10.2018 12:00:00 11,0 5,8 31 17 - - SW 1024,3
18.10.2018 11:00:00 10,8 6,2 28 15 - - WSW 1024,3
18.10.2018 10:00:00 10,5 5,8 28 15 - - SW 1024,1
18.10.2018 09:00:00 10,6 5,8 29 16 - - W 1024,1
18.10.2018 08:00:00 10,5 5,8 31 17 54 29 W 1023,7
18.10.2018 07:00:00 10,1 6,2 26 14 52 28 W 1023,5
18.10.2018 06:00:00 10,5 5,3 41 22 54 29 W 1022,7
18.10.2018 05:00:00 10,4 5,4 35 19 52 28 W 1022,7
18.10.2018 04:00:00 9,8 4,8 35 19 55 30 W 1022,7
18.10.2018 03:00:00 9,9 5,6 31 17 57 31 W 1022,5
18.10.2018 02:00:00 10,5 5,1 35 19 52 28 W 1022,1
18.10.2018 01:00:00 10,3 4,0 41 22 57 31 W 1021,7
18.10.2018 00:00:00 10,3 4,2 41 22 61 33 W 1021,1
17.10.2018 23:00:00 10,1 5,0 39 21 55 30 W 1020,5
17.10.2018 22:00:00 9,8 5,0 39 21 59 32 WSW 1020,1
17.10.2018 21:00:00 10,4 5,1 41 22 54 29 W 1019,7
17.10.2018 20:00:00 10,1 5,7 39 21 59 32 W 1018,9
17.10.2018 19:00:00 9,8 4,5 37 20 63 34 W 1017,9
17.10.2018 18:00:00 10,6 4,6 39 21 52 28 W 1016,9
17.10.2018 17:00:00 10,5 5,3 37 20 52 28 W 1016,1
17.10.2018 16:00:00 10,6 6,0 39 21 59 32 W 1015,3
17.10.2018 15:00:00 10,4 5,3 39 21 63 34 W 1014,5
17.10.2018 14:00:00 10,7 5,5 42 23 54 29 W 1013,5
17.10.2018 13:00:00 9,7 5,5 41 22 59 32 WSW 1012,9
17.10.2018 12:00:00 11,1 5,7 41 22 57 31 WSW 1012,1
17.10.2018 11:00:00 10,8 5,5 42 23 55 30 WSW 1011,3
17.10.2018 10:00:00 10,8 5,6 44 24 63 34 WSW 1010,3
17.10.2018 09:00:00 10,6 5,5 42 23 59 32 WSW 1009,3
17.10.2018 08:00:00 10,3 5,1 42 23 59 32 WSW 1008,3
17.10.2018 07:00:00 9,7 6,0 39 21 74 40 WSW 1007,1
17.10.2018 06:00:00 9,8 5,9 42 23 59 32 WSW 1006,7
17.10.2018 05:00:00 9,4 5,2 42 23 59 32 WSW 1005,9
17.10.2018 04:00:00 10,3 5,8 41 22 61 33 WSW 1005,1
17.10.2018 03:00:00 10,7 6,8 37 20 52 28 WSW 1004,7
17.10.2018 02:00:00 11,2 8,0 34 18 57 31 WSW 1004,0
17.10.2018 01:00:00 10,8 8,0 35 19 59 32 WSW 1003,4
17.10.2018 00:00:00 11,8 8,2 34 18 52 28 WSW 1002,8
16.10.2018 23:00:00 11,8 8,9 29 16 50 27 SW 1002,4
16.10.2018 22:00:00 11,6 8,2 26 14 52 28 SW 1002,0
16.10.2018 21:00:00 11,9 8,4 31 17 59 32 SW 1001,6
16.10.2018 20:00:00 12,2 9,6 44 24 59 32 SSW 1000,8
16.10.2018 19:00:00 12,2 9,2 39 21 63 34 SSW 1000,4
16.10.2018 18:00:00 12,4 9,2 48 26 68 37 SSW 999,4
16.10.2018 17:00:00 12,9 9,2 50 27 72 39 SSW 999,0
16.10.2018 16:00:00 13,0 9,3 52 28 68 37 SSW 999,2
16.10.2018 15:00:00 13,1 9,3 52 28 78 42 SSW 999,4

tt = Température de l'air
td = dewpoint
ff = Vitesse du vent
fx = gusts
dd = Direction du vent
ppp = reduced air pressure

stations d'obs. à proximité